Time;durP1;ratioP1;P1;durP2;ratioP2;P2;SDS_P1;SDS_P2;PMS_P1;PMS_P2;Temp;Humidity;BMP_temperature;BMP_pressure;BME280_temperature;BME280_humidity;BME280_pressure;Samples;Min_cycle;Max_cycle;Signal;HPM_P1;HPM_P2
2021/10/03 00:01:03;;;;;;;;;2.00;2.00;;;;;-144.24;100.00;60536.00;5069463;28;8789;-79
2021/10/03 00:03:28;;;;;;;;;5.00;4.00;;;;;-144.24;100.00;60536.00;5077702;28;8793;-80
2021/10/03 00:05:56;;;;;;;;;2.00;2.00;;;;;-144.24;100.00;60536.00;5053416;28;8821;-80
2021/10/03 00:08:21;;;;;;;;;4.00;3.00;;;;;-144.24;100.00;60536.00;5092355;28;8831;-79
2021/10/03 00:10:48;;;;;;;;;2.67;2.67;;;;;-144.24;100.00;60536.00;5070935;28;8825;-80
2021/10/03 00:13:13;;;;;;;;;5.67;3.67;;;;;-144.24;100.00;60536.00;5086251;28;8813;-80
2021/10/03 00:15:39;;;;;;;;;3.00;3.00;;;;;-144.24;100.00;60536.00;5070140;28;23863;-80
2021/10/03 00:18:05;;;;;;;;;4.00;4.00;;;;;-144.24;100.00;60536.00;5071781;28;8808;-80
2021/10/03 00:20:31;;;;;;;;;4.67;3.00;;;;;-144.24;100.00;60536.00;5070518;28;8812;-80
2021/10/03 00:22:56;;;;;;;;;3.00;3.00;;;;;-144.24;100.00;60536.00;5086045;28;8840;-79
2021/10/03 00:25:25;;;;;;;;;3.67;3.67;;;;;-144.24;100.00;60536.00;5070505;28;23555;-80
2021/10/03 00:27:51;;;;;;;;;4.00;3.00;;;;;-144.24;100.00;60536.00;5070394;28;9543;-80
2021/10/03 00:30:16;;;;;;;;;2.33;2.33;;;;;-144.24;100.00;60536.00;5052658;28;8813;-79
2021/10/03 00:32:41;;;;;;;;;4.33;3.00;;;;;-144.24;100.00;60536.00;5069910;28;21927;-80
2021/10/03 00:35:07;;;;;;;;;4.67;3.00;;;;;-144.24;100.00;60536.00;5069932;28;21527;-79
2021/10/03 00:37:32;;;;;;;;;4.67;4.00;;;;;-144.24;100.00;60536.00;5085964;28;8868;-80
2021/10/03 00:39:58;;;;;;;;;3.00;3.00;;;;;-144.24;100.00;60536.00;5044892;28;25691;-80
2021/10/03 00:42:23;;;;;;;;;2.67;2.67;;;;;-144.24;100.00;60536.00;5073948;28;21509;-80
2021/10/03 00:44:49;;;;;;;;;4.00;4.00;;;;;-144.24;100.00;60536.00;5073646;28;20734;-80
2021/10/03 00:47:15;;;;;;;;;4.00;4.00;;;;;-144.24;100.00;60536.00;5074092;28;8801;-80
2021/10/03 00:49:40;;;;;;;;;5.00;4.00;;;;;-144.24;100.00;60536.00;5074216;28;8821;-79
2021/10/03 00:52:06;;;;;;;;;3.67;3.67;;;;;-144.24;100.00;60536.00;5073767;28;8864;-79
2021/10/03 00:54:32;;;;;;;;;6.00;5.00;;;;;-144.24;100.00;60536.00;5075790;28;8809;-79
2021/10/03 00:56:58;;;;;;;;;4.33;4.33;;;;;-144.24;100.00;60536.00;5073920;28;8813;-79
2021/10/03 00:59:23;;;;;;;;;6.00;4.00;;;;;-144.24;100.00;60536.00;5069395;28;8829;-79
2021/10/03 01:01:49;;;;;;;;;4.67;4.67;;;;;-144.24;100.00;60536.00;5072013;28;20130;-80
2021/10/03 01:04:14;;;;;;;;;5.00;5.00;;;;;-144.24;100.00;60536.00;5073370;28;8914;-80
2021/10/03 01:06:41;;;;;;;;;3.00;3.00;;;;;-144.24;100.00;60536.00;5074663;28;21754;-80
2021/10/03 01:09:07;;;;;;;;;7.67;5.00;;;;;-144.24;100.00;60536.00;5077328;28;8805;-80
2021/10/03 01:11:32;;;;;;;;;5.00;5.00;;;;;-144.24;100.00;60536.00;5073327;28;8825;-80
2021/10/03 01:13:58;;;;;;;;;5.00;5.00;;;;;-144.24;100.00;60536.00;5073001;28;18123;-79
2021/10/03 01:16:23;;;;;;;;;5.00;5.00;;;;;-144.24;100.00;60536.00;5055245;28;21470;-79
2021/10/03 01:18:49;;;;;;;;;4.33;4.33;;;;;-144.24;100.00;60536.00;5073220;28;22245;-80
2021/10/03 01:21:15;;;;;;;;;3.00;3.00;;;;;-144.24;100.00;60536.00;5074396;28;8857;-80
2021/10/03 01:23:42;;;;;;;;;5.00;5.00;;;;;-144.24;100.00;60536.00;5055643;28;8815;-79
2021/10/03 01:26:07;;;;;;;;;5.00;4.00;;;;;-144.24;100.00;60536.00;5073492;28;8931;-80
2021/10/03 01:28:33;;;;;;;;;5.00;5.00;;;;;-144.24;100.00;60536.00;5072927;28;17261;-80
2021/10/03 01:30:58;;;;;;;;;5.67;5.67;;;;;-144.24;100.00;60536.00;5042445;28;8817;-80
2021/10/03 01:33:24;;;;;;;;;5.33;5.33;;;;;-144.24;100.00;60536.00;5088044;28;8863;-80
2021/10/03 01:35:50;;;;;;;;;6.00;6.00;;;;;-144.24;100.00;60536.00;5073353;28;8825;-80
2021/10/03 01:38:16;;;;;;;;;9.00;6.00;;;;;-144.24;100.00;60536.00;5054964;28;8832;-79
2021/10/03 01:40:43;;;;;;;;;8.00;6.00;;;;;-144.24;100.00;60536.00;5073190;28;8843;-80
2021/10/03 01:43:08;;;;;;;;;6.00;4.33;;;;;-144.24;100.00;60536.00;5088687;28;8839;-80
2021/10/03 01:45:33;;;;;;;;;6.00;4.67;;;;;-144.24;100.00;60536.00;5072761;28;8848;-79
2021/10/03 01:47:59;;;;;;;;;5.00;5.00;;;;;-144.24;100.00;60536.00;5073145;28;9494;-80
2021/10/03 01:50:25;;;;;;;;;5.00;4.67;;;;;-144.24;100.00;60536.00;5071998;28;8793;-79
2021/10/03 01:52:50;;;;;;;;;8.00;7.00;;;;;-144.24;100.00;60536.00;5072452;28;24026;-81
2021/10/03 01:55:15;;;;;;;;;5.00;5.00;;;;;-144.24;100.00;60536.00;5072604;28;20659;-80
2021/10/03 01:57:41;;;;;;;;;6.67;6.67;;;;;-144.24;100.00;60536.00;5055472;28;18774;-79
2021/10/03 02:00:07;;;;;;;;;6.67;5.67;;;;;-144.24;100.00;60536.00;5071442;28;19891;-80
2021/10/03 02:02:32;;;;;;;;;6.33;5.67;;;;;-144.24;100.00;60536.00;5077418;28;8797;-79
2021/10/03 02:04:58;;;;;;;;;7.00;6.00;;;;;-144.24;100.00;60536.00;5072392;28;15900;-80
2021/10/03 02:07:23;;;;;;;;;6.00;6.00;;;;;-144.24;100.00;60536.00;5057181;28;8848;-79
2021/10/03 02:09:49;;;;;;;;;9.67;6.00;;;;;-144.24;100.00;60536.00;5071981;28;22434;-80
2021/10/03 02:12:14;;;;;;;;;6.67;6.67;;;;;-144.24;100.00;60536.00;5072108;28;20366;-80
2021/10/03 02:14:39;;;;;;;;;7.33;7.33;;;;;-144.24;100.00;60536.00;5072739;28;8812;-81
2021/10/03 02:17:06;;;;;;;;;6.67;5.00;;;;;-144.24;100.00;60536.00;5072147;28;23788;-79
2021/10/03 02:19:31;;;;;;;;;7.00;5.00;;;;;-144.24;100.00;60536.00;5054902;28;8805;-80
2021/10/03 02:21:57;;;;;;;;;4.00;4.00;;;;;-144.24;100.00;60536.00;5037790;28;8868;-79
2021/10/03 02:24:22;;;;;;;;;8.33;7.00;;;;;-144.24;100.00;60536.00;5088430;28;8809;-81
2021/10/03 02:26:48;;;;;;;;;8.00;6.67;;;;;-144.24;100.00;60536.00;5087879;28;22642;-80
2021/10/03 02:29:13;;;;;;;;;6.00;6.00;;;;;-144.24;100.00;60536.00;5077062;28;8914;-79
2021/10/03 02:31:39;;;;;;;;;8.33;6.33;;;;;-144.24;100.00;60536.00;5072123;28;17867;-80
2021/10/03 02:34:04;;;;;;;;;8.00;7.00;;;;;-144.24;100.00;60536.00;5071403;28;20452;-80
2021/10/03 02:36:29;;;;;;;;;8.67;7.00;;;;;-144.24;100.00;60536.00;5072229;28;19511;-80
2021/10/03 02:38:55;;;;;;;;;6.00;6.00;;;;;-144.24;100.00;60536.00;5072418;28;8848;-81
2021/10/03 02:41:20;;;;;;;;;6.00;6.00;;;;;-144.24;100.00;60536.00;5071840;28;8852;-80
2021/10/03 02:43:48;;;;;;;;;6.00;6.00;;;;;-144.24;100.00;60536.00;5072348;28;8792;-81
2021/10/03 02:46:14;;;;;;;;;8.00;6.67;;;;;-144.24;100.00;60536.00;5072043;28;8805;-79
2021/10/03 02:48:39;;;;;;;;;9.00;7.00;;;;;-144.24;100.00;60536.00;5072468;28;8830;-81
2021/10/03 02:51:05;;;;;;;;;9.00;8.00;;;;;-144.24;100.00;60536.00;5072411;28;8801;-81
2021/10/03 02:53:30;;;;;;;;;8.33;7.00;;;;;-144.24;100.00;60536.00;5071777;28;8876;-79
2021/10/03 02:55:56;;;;;;;;;6.67;6.67;;;;;-144.24;100.00;60536.00;5072078;28;22990;-79
2021/10/03 02:58:21;;;;;;;;;6.67;6.00;;;;;-144.24;100.00;60536.00;5071343;28;22427;-80
2021/10/03 03:00:49;;;;;;;;;7.00;7.00;;;;;-144.24;100.00;60536.00;5076694;28;8804;-79
2021/10/03 03:03:15;;;;;;;;;7.00;6.00;;;;;-144.24;100.00;60536.00;5071399;28;8833;-81
2021/10/03 03:05:40;;;;;;;;;6.67;6.00;;;;;-144.24;100.00;60536.00;5071100;28;20199;-80
2021/10/03 03:08:06;;;;;;;;;10.33;8.00;;;;;-144.24;100.00;60536.00;5078416;28;8816;-81
2021/10/03 03:10:31;;;;;;;;;10.00;7.00;;;;;-144.24;100.00;60536.00;5071408;28;8949;-80
2021/10/03 03:12:57;;;;;;;;;7.67;7.00;;;;;-144.24;100.00;60536.00;5071771;28;8921;-80
2021/10/03 03:15:22;;;;;;;;;8.00;7.00;;;;;-144.24;100.00;60536.00;5071479;28;21692;-80
2021/10/03 03:17:48;;;;;;;;;6.00;6.00;;;;;-144.24;100.00;60536.00;5073806;28;23559;-80
2021/10/03 03:20:13;;;;;;;;;8.00;8.00;;;;;-144.24;100.00;60536.00;5071979;28;8824;-81
2021/10/03 03:22:38;;;;;;;;;7.00;7.00;;;;;-144.24;100.00;60536.00;5070526;28;20702;-80
2021/10/03 03:25:05;;;;;;;;;6.00;6.00;;;;;-144.24;100.00;60536.00;5071745;28;11453;-80
2021/10/03 03:27:31;;;;;;;;;10.00;7.00;;;;;-144.24;100.00;60536.00;5071771;28;9569;-80
2021/10/03 03:29:56;;;;;;;;;7.00;7.00;;;;;-144.24;100.00;60536.00;5070425;28;20590;-80
2021/10/03 03:32:21;;;;;;;;;7.33;7.33;;;;;-144.24;100.00;60536.00;5071162;28;19511;-80
2021/10/03 03:34:47;;;;;;;;;7.67;7.67;;;;;-144.24;100.00;60536.00;5071389;28;8789;-79
2021/10/03 03:37:12;;;;;;;;;7.67;6.67;;;;;-144.24;100.00;60536.00;5071131;28;22627;-79
2021/10/03 03:39:38;;;;;;;;;10.00;7.00;;;;;-144.24;100.00;60536.00;5086629;28;19935;-80
2021/10/03 03:42:03;;;;;;;;;9.00;7.67;;;;;-144.24;100.00;60536.00;5070443;28;22205;-80
2021/10/03 03:44:29;;;;;;;;;7.67;7.00;;;;;-144.24;100.00;60536.00;5070861;28;21586;-82
2021/10/03 03:46:54;;;;;;;;;7.33;7.33;;;;;-144.24;100.00;60536.00;5070941;28;8805;-80
2021/10/03 03:49:20;;;;;;;;;9.67;7.33;;;;;-144.24;100.00;60536.00;5064345;28;19954;-80
2021/10/03 03:51:45;;;;;;;;;6.67;6.67;;;;;-144.24;100.00;60536.00;5071461;28;8817;-81
2021/10/03 03:54:11;;;;;;;;;7.00;6.00;;;;;-144.24;100.00;60536.00;5070829;28;8820;-81
2021/10/03 03:56:36;;;;;;;;;8.00;7.00;;;;;-144.24;100.00;60536.00;5077976;28;16465;-80
2021/10/03 03:59:01;;;;;;;;;8.00;7.00;;;;;-144.24;100.00;60536.00;5074995;28;14401;-80
2021/10/03 04:01:27;;;;;;;;;6.67;6.67;;;;;-144.24;100.00;60536.00;5071439;28;17864;-81
2021/10/03 04:03:53;;;;;;;;;7.00;6.00;;;;;-144.24;100.00;60536.00;5076430;28;8829;-80
2021/10/03 04:06:18;;;;;;;;;6.67;6.67;;;;;-144.24;100.00;60536.00;5070787;28;8909;-81
2021/10/03 04:08:43;;;;;;;;;7.00;7.00;;;;;-144.24;100.00;60536.00;5074566;28;18889;-81
2021/10/03 04:11:11;;;;;;;;;9.67;8.33;;;;;-144.24;100.00;60536.00;5070306;28;23708;-81
2021/10/03 04:13:36;;;;;;;;;8.33;7.33;;;;;-144.24;100.00;60536.00;5051717;28;8824;-80
2021/10/03 04:16:02;;;;;;;;;10.67;7.33;;;;;-144.24;100.00;60536.00;5070279;28;8863;-82
2021/10/03 04:18:27;;;;;;;;;8.00;7.00;;;;;-144.24;100.00;60536.00;5070417;28;8834;-81
2021/10/03 04:20:53;;;;;;;;;5.33;5.33;;;;;-144.24;100.00;60536.00;5070103;28;10491;-82
2021/10/03 04:23:18;;;;;;;;;8.00;7.00;;;;;-144.24;100.00;60536.00;5070705;28;21076;-80
2021/10/03 04:25:43;;;;;;;;;7.33;7.00;;;;;-144.24;100.00;60536.00;5072085;28;8862;-80
2021/10/03 04:28:10;;;;;;;;;6.00;6.00;;;;;-144.24;100.00;60536.00;5070963;28;8800;-82
2021/10/03 04:30:35;;;;;;;;;9.67;7.33;;;;;-144.24;100.00;60536.00;5070355;28;8836;-82
2021/10/03 04:33:01;;;;;;;;;8.33;8.33;;;;;-144.24;100.00;60536.00;5065761;28;8823;-80
2021/10/03 04:35:26;;;;;;;;;8.00;8.00;;;;;-144.24;100.00;60536.00;5070169;28;22470;-80
2021/10/03 04:37:51;;;;;;;;;8.00;7.67;;;;;-144.24;100.00;60536.00;5070324;28;9574;-80
2021/10/03 04:40:17;;;;;;;;;7.00;7.00;;;;;-144.24;100.00;60536.00;5070629;28;8805;-81
2021/10/03 04:42:45;;;;;;;;;9.00;8.00;;;;;-144.24;100.00;60536.00;5071357;28;8851;-81
2021/10/03 04:45:10;;;;;;;;;6.33;6.33;;;;;-144.24;100.00;60536.00;5070694;28;8796;-81
2021/10/03 04:47:36;;;;;;;;;13.33;9.00;;;;;-144.24;100.00;60536.00;5070704;28;8801;-80
2021/10/03 04:50:01;;;;;;;;;9.67;8.33;;;;;-144.24;100.00;60536.00;5070434;28;8939;-79
2021/10/03 04:52:27;;;;;;;;;8.67;8.67;;;;;-144.24;100.00;60536.00;5070627;28;8817;-80
2021/10/03 04:54:52;;;;;;;;;7.00;7.00;;;;;-144.24;100.00;60536.00;5076580;28;8798;-81
2021/10/03 04:57:18;;;;;;;;;8.33;8.33;;;;;-144.24;100.00;60536.00;5075022;28;8882;-81
2021/10/03 04:59:43;;;;;;;;;8.67;8.67;;;;;-144.24;100.00;60536.00;5055012;28;8829;-83
2021/10/03 05:02:09;;;;;;;;;9.67;5.00;;;;;-144.24;100.00;60536.00;5072164;28;15621;-80
2021/10/03 05:04:34;;;;;;;;;3.00;3.00;;;;;-144.24;100.00;60536.00;5070334;28;8828;-79
2021/10/03 05:06:59;;;;;;;;;4.00;1.00;;;;;-144.24;100.00;60536.00;5072613;28;18570;-82
2021/10/03 05:09:25;;;;;;;;;1.67;1.00;;;;;-144.24;100.00;60536.00;5069753;28;22459;-81
2021/10/03 05:11:50;;;;;;;;;0.00;0.00;;;;;-144.24;100.00;60536.00;5069342;28;21421;-82
2021/10/03 05:14:16;;;;;;;;;0.00;0.00;;;;;-144.24;100.00;60536.00;5069388;28;21603;-81
2021/10/03 05:16:41;;;;;;;;;1.00;0.00;;;;;-144.24;100.00;60536.00;5070275;28;8895;-81
2021/10/03 05:19:06;;;;;;;;;0.00;0.00;;;;;-144.24;100.00;60536.00;5070192;28;8857;-81
2021/10/03 05:21:32;;;;;;;;;0.00;0.00;;;;;-144.24;100.00;60536.00;5070223;28;8821;-81
2021/10/03 05:23:57;;;;;;;;;0.00;0.00;;;;;-144.24;100.00;60536.00;5069608;28;24668;-81
2021/10/03 05:26:23;;;;;;;;;0.00;0.00;;;;;-144.24;100.00;60536.00;5072946;28;8817;-82
2021/10/03 05:28:49;;;;;;;;;0.00;0.00;;;;;-144.24;100.00;60536.00;5073909;28;8820;-82
2021/10/03 05:31:14;;;;;;;;;1.00;0.00;;;;;-144.24;100.00;60536.00;5073450;28;8867;-80
2021/10/03 05:33:40;;;;;;;;;2.00;0.00;;;;;-144.24;100.00;60536.00;5069372;28;15481;-81
2021/10/03 05:36:05;;;;;;;;;0.00;0.00;;;;;-144.24;100.00;60536.00;5073498;28;13224;-82
2021/10/03 05:38:31;;;;;;;;;3.00;1.00;;;;;-144.24;100.00;60536.00;5073379;28;9551;-81
2021/10/03 05:40:56;;;;;;;;;0.00;0.00;;;;;-144.24;100.00;60536.00;5055323;28;8902;-81
2021/10/03 05:43:22;;;;;;;;;0.00;0.00;;;;;-144.24;100.00;60536.00;5072913;28;19950;-81
2021/10/03 05:45:47;;;;;;;;;0.00;0.00;;;;;-144.24;100.00;60536.00;5072967;28;8847;-81
2021/10/03 05:48:12;;;;;;;;;0.00;0.00;;;;;-144.24;100.00;60536.00;5073114;28;12503;-80
2021/10/03 05:50:38;;;;;;;;;0.00;0.00;;;;;-144.24;100.00;60536.00;5073725;28;8824;-80
2021/10/03 05:53:03;;;;;;;;;0.00;0.00;;;;;-144.24;100.00;60536.00;5074204;28;8824;-81
2021/10/03 05:55:29;;;;;;;;;0.00;0.00;;;;;-144.24;100.00;60536.00;5073395;28;8851;-81
2021/10/03 05:57:54;;;;;;;;;0.00;0.00;;;;;-144.24;100.00;60536.00;5072857;28;8805;-80
2021/10/03 06:00:19;;;;;;;;;1.00;0.00;;;;;-144.24;100.00;60536.00;5073371;28;9548;-80
2021/10/03 06:02:45;;;;;;;;;0.00;0.00;;;;;-144.24;100.00;60536.00;5074733;28;25168;-80
2021/10/03 06:05:10;;;;;;;;;0.00;0.00;;;;;-144.24;100.00;60536.00;5072409;28;22873;-81
2021/10/03 06:07:36;;;;;;;;;0.00;0.00;;;;;-144.24;100.00;60536.00;5074297;28;8797;-80
2021/10/03 06:10:01;;;;;;;;;0.00;0.00;;;;;-144.24;100.00;60536.00;5071784;28;22534;-82
2021/10/03 06:12:26;;;;;;;;;0.00;0.00;;;;;-144.24;100.00;60536.00;5072586;28;8864;-80
2021/10/03 06:14:52;;;;;;;;;0.33;0.00;;;;;-144.24;100.00;60536.00;5072475;28;8827;-79
2021/10/03 06:17:17;;;;;;;;;0.00;0.00;;;;;-144.24;100.00;60536.00;5072011;28;8808;-80
2021/10/03 06:19:43;;;;;;;;;0.00;0.00;;;;;-144.24;100.00;60536.00;5072288;28;20236;-81
2021/10/03 06:22:08;;;;;;;;;0.00;0.00;;;;;-144.24;100.00;60536.00;5075485;28;19904;-81
2021/10/03 06:24:34;;;;;;;;;0.00;0.00;;;;;-144.24;100.00;60536.00;5072515;28;8844;-80
2021/10/03 06:26:59;;;;;;;;;0.00;0.00;;;;;-144.24;100.00;60536.00;5072015;28;22166;-80
2021/10/03 06:29:24;;;;;;;;;0.33;0.33;;;;;-144.24;100.00;60536.00;5071576;28;23473;-79
2021/10/03 06:31:50;;;;;;;;;0.00;0.00;;;;;-144.24;100.00;60536.00;5071713;28;17981;-78
2021/10/03 06:34:15;;;;;;;;;0.00;0.00;;;;;-144.24;100.00;60536.00;5074078;28;8885;-78
2021/10/03 06:36:40;;;;;;;;;1.00;1.00;;;;;-144.24;100.00;60536.00;5070908;28;22567;-79
2021/10/03 06:39:06;;;;;;;;;0.00;0.00;;;;;-144.24;100.00;60536.00;5070175;28;24190;-78
2021/10/03 06:41:31;;;;;;;;;0.00;0.00;;;;;-144.24;100.00;60536.00;5081542;28;8818;-78
2021/10/03 06:43:57;;;;;;;;;0.00;0.00;;;;;-144.24;100.00;60536.00;5048824;28;8846;-77
2021/10/03 06:46:22;;;;;;;;;0.00;0.00;;;;;-144.24;100.00;60536.00;5086769;28;23128;-79
2021/10/03 06:48:48;;;;;;;;;3.00;1.00;;;;;-144.24;100.00;60536.00;5075444;28;8814;-79
2021/10/03 06:51:14;;;;;;;;;1.00;1.00;;;;;-144.24;100.00;60536.00;5072015;28;8804;-76
2021/10/03 06:53:40;;;;;;;;;1.33;0.00;;;;;-144.24;100.00;60536.00;5078007;28;8793;-79
2021/10/03 06:56:05;;;;;;;;;1.00;1.00;;;;;-144.24;100.00;60536.00;5074558;28;8902;-77
2021/10/03 06:58:31;;;;;;;;;0.67;0.67;;;;;-144.24;100.00;60536.00;5074204;28;22807;-76
2021/10/03 07:00:56;;;;;;;;;1.00;1.00;;;;;-144.24;100.00;60536.00;5075114;28;8826;-77
2021/10/03 07:03:22;;;;;;;;;0.00;0.00;;;;;-144.24;100.00;60536.00;5073156;28;8800;-78
2021/10/03 07:05:47;;;;;;;;;2.00;0.00;;;;;-144.24;100.00;60536.00;5072194;28;12849;-77
2021/10/03 07:08:12;;;;;;;;;0.00;0.00;;;;;-144.24;100.00;60536.00;5071247;28;23084;-78
2021/10/03 07:10:39;;;;;;;;;0.00;0.00;;;;;-144.24;100.00;60536.00;5071940;28;12583;-77
2021/10/03 07:13:05;;;;;;;;;4.33;1.33;;;;;-144.24;100.00;60536.00;5068646;28;8797;-76
2021/10/03 07:15:31;;;;;;;;;0.00;0.00;;;;;-144.24;100.00;60536.00;5076542;28;8818;-76
2021/10/03 07:17:56;;;;;;;;;1.00;1.00;;;;;-144.24;100.00;60536.00;5071299;28;9364;-77
2021/10/03 07:20:22;;;;;;;;;1.00;1.00;;;;;-144.24;100.00;60536.00;5070576;28;8843;-80
2021/10/03 07:22:47;;;;;;;;;0.00;0.00;;;;;-144.24;100.00;60536.00;5072163;28;8808;-77
2021/10/03 07:25:13;;;;;;;;;0.00;0.00;;;;;-144.24;100.00;60536.00;5072509;28;21185;-78
2021/10/03 07:27:38;;;;;;;;;48.75;41.25;;;;;-144.24;100.00;60536.00;5070947;28;18931;-80
2021/10/03 07:30:04;;;;;;;;;9.00;9.00;;;;;-144.24;100.00;60536.00;5175456;22;8864;-78
2021/10/03 07:32:29;;;;;;;;;3.00;1.33;;;;;-144.24;100.00;60536.00;5035971;28;8897;-79
2021/10/03 07:34:55;;;;;;;;;1.00;1.00;;;;;-144.24;100.00;60536.00;5079790;28;9569;-78
2021/10/03 07:37:20;;;;;;;;;0.67;0.67;;;;;-144.24;100.00;60536.00;5087178;28;15799;-81
2021/10/03 07:39:45;;;;;;;;;1.00;1.00;;;;;-144.24;100.00;60536.00;5071021;28;12562;-80
2021/10/03 07:42:11;;;;;;;;;1.00;1.00;;;;;-144.24;100.00;60536.00;5033581;28;26187;-79
2021/10/03 07:44:36;;;;;;;;;27.00;27.00;;;;;-144.24;100.00;60536.00;5066978;28;21467;-77
2021/10/03 07:47:02;;;;;;;;;6.00;6.00;;;;;-144.24;100.00;60536.00;5066926;28;13093;-79
2021/10/03 07:49:27;;;;;;;;;1.00;1.00;;;;;-144.24;100.00;60536.00;5052250;28;8817;-79
2021/10/03 07:51:53;;;;;;;;;1.33;1.00;;;;;-144.24;100.00;60536.00;5068204;28;18177;-77
2021/10/03 07:54:18;;;;;;;;;3.00;3.00;;;;;-144.24;100.00;60536.00;5066714;28;8829;-77
2021/10/03 07:56:43;;;;;;;;;7.00;7.00;;;;;-144.24;100.00;60536.00;5045119;28;19874;-76
2021/10/03 07:59:09;;;;;;;;;5.00;3.33;;;;;-144.24;100.00;60536.00;5059479;28;8835;-77
2021/10/03 08:01:34;;;;;;;;;3.00;3.00;;;;;-144.24;100.00;60536.00;5066340;28;13834;-79
2021/10/03 08:04:00;;;;;;;;;1.00;1.00;;;;;-144.24;100.00;60536.00;5061635;28;18983;-77
2021/10/03 08:06:27;;;;;;;;;2.00;2.00;;;;;-144.24;100.00;60536.00;5065473;28;8796;-77
2021/10/03 08:08:55;;;;;;;;;2.67;2.67;;;;;-144.24;100.00;60536.00;5053243;28;8793;-76
2021/10/03 08:11:21;;;;;;;;;1.00;1.00;;;;;-144.24;100.00;60536.00;5069786;28;8820;-77
2021/10/03 08:13:47;;;;;;;;;1.00;1.00;;;;;-144.24;100.00;60536.00;5048414;28;8922;-79
2021/10/03 08:16:12;;;;;;;;;0.00;0.00;;;;;-144.24;100.00;60536.00;5046620;28;23794;-78
2021/10/03 08:18:37;;;;;;;;;4.00;3.00;;;;;-144.24;100.00;60536.00;5047137;28;8835;-79
2021/10/03 08:21:03;;;;;;;;;2.00;1.00;;;;;-144.24;100.00;60536.00;5061960;28;9563;-77
2021/10/03 08:23:28;;;;;;;;;1.33;1.33;;;;;-144.24;100.00;60536.00;5050543;28;8955;-77
2021/10/03 08:25:54;;;;;;;;;1.33;1.33;;;;;-144.24;100.00;60536.00;5064966;28;8813;-76
2021/10/03 08:28:20;;;;;;;;;1.00;1.00;;;;;-144.24;100.00;60536.00;5061356;28;8848;-77
2021/10/03 08:30:46;;;;;;;;;1.00;1.00;;;;;-144.24;100.00;60536.00;5066851;28;8851;-78
2021/10/03 08:33:11;;;;;;;;;1.00;1.00;;;;;-144.24;100.00;60536.00;5044801;28;8833;-77
2021/10/03 08:35:37;;;;;;;;;0.67;0.67;;;;;-144.24;100.00;60536.00;5080478;28;8896;-76
2021/10/03 08:38:02;;;;;;;;;0.33;0.00;;;;;-144.24;100.00;60536.00;5083206;28;8791;-79
2021/10/03 08:40:28;;;;;;;;;0.00;0.00;;;;;-144.24;100.00;60536.00;5079977;28;8840;-76
2021/10/03 08:42:53;;;;;;;;;0.00;0.00;;;;;-144.24;100.00;60536.00;5066329;28;8809;-77
2021/10/03 08:45:20;;;;;;;;;0.67;0.67;;;;;-144.24;100.00;60536.00;5065488;28;11055;-77
2021/10/03 08:47:45;;;;;;;;;0.00;0.00;;;;;-144.24;100.00;60536.00;5067466;28;8797;-76
2021/10/03 08:50:13;;;;;;;;;1.00;1.00;;;;;-144.24;100.00;60536.00;5061401;28;20878;-78
2021/10/03 08:52:39;;;;;;;;;2.00;1.00;;;;;-144.24;100.00;60536.00;5067850;28;8805;-78
2021/10/03 08:55:08;;;;;;;;;1.00;1.00;;;;;-144.24;100.00;60536.00;5063272;28;8804;-81
2021/10/03 08:57:34;;;;;;;;;2.00;0.67;;;;;-144.24;100.00;60536.00;5066819;28;8804;-80
2021/10/03 09:00:07;;;;;;;;;1.00;1.00;;;;;-144.24;100.00;60536.00;5067198;28;9581;-78
2021/10/03 09:03:11;;;;;;;;;1.00;1.00;;;;;-144.24;100.00;60536.00;5073976;28;8809;-78
2021/10/03 09:05:40;;;;;;;;;2.00;1.00;;;;;-144.24;100.00;60536.00;5071940;28;8847;-78
2021/10/03 09:08:14;;;;;;;;;1.33;1.00;;;;;-144.24;100.00;60536.00;5066002;28;8805;-78
2021/10/03 09:10:55;;;;;;;;;4.00;1.67;;;;;-144.24;100.00;60536.00;5072407;28;8797;-80
2021/10/03 09:13:47;;;;;;;;;1.00;1.00;;;;;-144.24;100.00;60536.00;5073580;28;8805;-80
2021/10/03 09:16:23;;;;;;;;;1.67;1.00;;;;;-144.24;100.00;60536.00;5055508;28;8793;-81
2021/10/03 09:18:57;;;;;;;;;3.00;1.00;;;;;-144.24;100.00;60536.00;5064160;28;8875;-78
2021/10/03 09:21:28;;;;;;;;;1.00;1.00;;;;;-144.24;100.00;60536.00;5070961;28;8797;-77
2021/10/03 09:23:56;;;;;;;;;1.00;1.00;;;;;-144.24;100.00;60536.00;5069449;28;8805;-78
2021/10/03 09:26:22;;;;;;;;;1.00;1.00;;;;;-144.24;100.00;60536.00;5065361;28;8816;-79
2021/10/03 09:28:48;;;;;;;;;1.33;1.33;;;;;-144.24;100.00;60536.00;5054906;28;18725;-80
2021/10/03 09:31:17;;;;;;;;;3.00;0.00;;;;;-144.24;100.00;60536.00;5070147;28;8914;-77
2021/10/03 09:33:50;;;;;;;;;0.00;0.00;;;;;-144.24;100.00;60536.00;5072935;28;8834;-76
2021/10/03 09:36:21;;;;;;;;;1.00;0.00;;;;;-144.24;100.00;60536.00;5070582;28;8820;-76
2021/10/03 09:38:49;;;;;;;;;0.00;0.00;;;;;-144.24;100.00;60536.00;5069444;28;8815;-76
2021/10/03 09:41:15;;;;;;;;;0.00;0.00;;;;;-144.24;100.00;60536.00;5062925;28;8890;-79
2021/10/03 09:43:49;;;;;;;;;0.00;0.00;;;;;-144.24;100.00;60536.00;5071533;28;8813;-78
2021/10/03 09:46:41;;;;;;;;;0.00;0.00;;;;;-144.24;100.00;60536.00;5070839;28;8829;-79
2021/10/03 09:49:08;;;;;;;;;0.00;0.00;;;;;-144.24;100.00;60536.00;5068126;28;8805;-77
2021/10/03 09:51:34;;;;;;;;;0.00;0.00;;;;;-144.24;100.00;60536.00;5072723;28;8816;-77
2021/10/03 09:53:59;;;;;;;;;0.00;0.00;;;;;-144.24;100.00;60536.00;5072875;28;8862;-77
2021/10/03 09:56:26;;;;;;;;;0.00;0.00;;;;;-144.24;100.00;60536.00;5071947;28;23615;-77
2021/10/03 09:58:53;;;;;;;;;0.00;0.00;;;;;-144.24;100.00;60536.00;5072606;28;8811;-78
2021/10/03 10:01:19;;;;;;;;;0.00;0.00;;;;;-144.24;100.00;60536.00;5072022;28;8845;-78
2021/10/03 10:03:45;;;;;;;;;0.00;0.00;;;;;-144.24;100.00;60536.00;5054055;28;8813;-77
2021/10/03 10:06:12;;;;;;;;;0.00;0.00;;;;;-144.24;100.00;60536.00;5071838;28;8859;-77
2021/10/03 10:08:38;;;;;;;;;0.00;0.00;;;;;-144.24;100.00;60536.00;5052218;28;8898;-77
2021/10/03 10:11:06;;;;;;;;;1.00;1.00;;;;;-144.24;100.00;60536.00;5069422;28;19196;-77
2021/10/03 10:13:32;;;;;;;;;0.00;0.00;;;;;-144.24;100.00;60536.00;5052325;28;8886;-76
2021/10/03 10:16:30;;;;;;;;;0.00;0.00;;;;;-144.24;100.00;60536.00;5071793;28;8828;-77
2021/10/03 10:19:28;;;;;;;;;0.00;0.00;;;;;-144.24;100.00;60536.00;5066037;28;8901;-77
2021/10/03 10:22:11;;;;;;;;;0.00;0.00;;;;;-144.24;100.00;60536.00;5072293;28;8795;-76
2021/10/03 10:24:43;;;;;;;;;3.00;3.00;;;;;-144.24;100.00;60536.00;5072342;28;8815;-76
2021/10/03 10:27:08;;;;;;;;;0.00;0.00;;;;;-144.24;100.00;60536.00;5072018;28;8813;-77
2021/10/03 10:29:52;;;;;;;;;0.00;0.00;;;;;-144.24;100.00;60536.00;5070668;28;8785;-77
2021/10/03 10:35:21;;;;;;;;;0.00;0.00;;;;;15.39;82.93;99839.94;5017651;27;45512;-77
2021/10/03 10:37:49;;;;;;;;;0.67;0.67;;;;;15.27;82.24;99826.94;5002616;27;45535;-78
2021/10/03 10:40:20;;;;;;;;;2.00;0.33;;;;;15.20;82.73;99835.06;4997594;27;45390;-77
2021/10/03 10:42:46;;;;;;;;;0.00;0.00;;;;;15.16;81.88;99844.03;4997759;28;45431;-79
2021/10/03 10:45:26;;;;;;;;;0.00;0.00;;;;;15.16;81.86;99840.50;5005630;28;47226;-78
2021/10/03 10:48:07;;;;;;;;;0.00;0.00;;;;;15.19;81.82;99851.06;4987239;28;45418;-77
2021/10/03 10:50:33;;;;;;;;;0.00;0.00;;;;;15.22;81.83;99869.59;4989692;28;45459;-77
2021/10/03 10:53:17;;;;;;;;;0.00;0.00;;;;;15.27;80.26;99907.59;4991876;28;45334;-76
2021/10/03 10:55:54;;;;;;;;;1.00;0.00;;;;;15.27;80.42;99912.91;5000868;28;46610;-76
2021/10/03 10:58:20;;;;;;;;;0.00;0.00;;;;;15.36;80.94;99923.34;4990250;27;45520;-77
2021/10/03 11:00:54;;;;;;;;;1.00;1.00;;;;;15.44;80.82;99917.84;4982614;28;45164;-76
2021/10/03 11:03:20;;;;;;;;;1.00;1.00;;;;;15.63;80.75;99897.91;4990075;28;45547;-75
2021/10/03 11:05:47;;;;;;;;;0.33;0.33;;;;;15.84;79.56;99898.28;4992742;27;60923;-76
2021/10/03 11:08:12;;;;;;;;;0.00;0.00;;;;;15.98;79.82;99891.72;4980993;28;45545;-76
2021/10/03 11:10:56;;;;;;;;;0.00;0.00;;;;;16.11;78.17;99896.69;4972625;28;45562;-76
2021/10/03 11:13:44;;;;;;;;;0.00;0.00;;;;;16.23;79.57;99897.22;4992846;27;45731;-79
2021/10/03 11:16:27;;;;;;;;;0.00;0.00;;;;;16.36;78.27;99948.41;4975159;28;47784;-78